createdAt,value
2019-04-22T00:00:36.645Z,99.90
2019-04-22T00:03:10.257Z,99.90
2019-04-22T00:06:02.214Z,99.90
2019-04-22T00:08:40.628Z,99.90
2019-04-22T00:11:11.006Z,99.90
2019-04-22T00:13:46.872Z,99.90
2019-04-22T00:16:07.174Z,99.90
2019-04-22T00:19:01.417Z,99.90
2019-04-22T00:21:21.385Z,99.90
2019-04-22T00:23:53.020Z,99.90
2019-04-22T00:26:26.107Z,99.90
2019-04-22T00:29:03.684Z,99.90
2019-04-22T00:31:31.675Z,99.90
2019-04-22T00:34:03.458Z,99.90
2019-04-22T00:36:38.153Z,99.90
2019-04-22T00:39:18.454Z,99.90
2019-04-22T00:41:42.556Z,99.90
2019-04-22T00:44:21.886Z,99.90
2019-04-22T00:46:46.823Z,99.90
2019-04-22T00:50:01.876Z,99.90
2019-04-22T00:51:52.886Z,99.90
2019-04-22T00:54:21.477Z,99.90
2019-04-22T00:56:59.253Z,99.90
2019-04-22T00:59:23.595Z,99.90
2019-04-22T01:02:00.402Z,99.90
2019-04-22T01:04:34.606Z,99.90
2019-04-22T01:06:57.499Z,99.90
2019-04-22T01:09:38.503Z,99.90
2019-04-22T01:12:09.521Z,99.90
2019-04-22T01:14:41.459Z,99.90
2019-04-22T01:17:06.391Z,99.90
2019-04-22T01:19:52.616Z,99.90
2019-04-22T01:22:17.364Z,99.90
2019-04-22T01:24:48.110Z,99.90
2019-04-22T01:27:11.549Z,99.90
2019-04-22T01:29:41.014Z,99.90
2019-04-22T01:32:13.171Z,99.90
2019-04-22T01:34:51.429Z,99.90
2019-04-22T01:37:26.896Z,99.90
2019-04-22T01:40:06.579Z,99.90
2019-04-22T01:42:39.709Z,99.90
2019-04-22T01:45:10.707Z,99.90
2019-04-22T01:50:16.873Z,99.90
2019-04-22T01:52:47.360Z,99.90
2019-04-22T01:55:27.724Z,99.90
2019-04-22T01:57:47.554Z,99.90
2019-04-22T02:00:11.296Z,99.90
2019-04-22T02:02:48.973Z,99.90
2019-04-22T02:05:24.316Z,99.90
2019-04-22T02:07:59.491Z,99.90
2019-04-22T02:10:36.248Z,99.90
2019-04-22T02:13:01.514Z,99.90
2019-04-22T02:15:31.466Z,99.90
2019-04-22T02:18:11.685Z,99.90
2019-04-22T02:20:40.223Z,99.90
2019-04-22T02:28:40.034Z,99.90
2019-04-22T02:31:23.546Z,99.90
2019-04-22T02:41:23.357Z,99.90
2019-04-22T02:49:02.002Z,99.90
2019-04-22T02:59:05.910Z,99.90
2019-04-22T03:04:06.711Z,99.90
2019-04-22T03:06:35.035Z,99.90
2019-04-22T03:14:04.796Z,99.90
2019-04-22T03:16:43.129Z,99.90
2019-04-22T03:21:52.360Z,99.90
2019-04-22T03:26:49.005Z,99.90
2019-04-22T03:30:36.715Z,99.90
2019-04-22T03:37:44.588Z,99.90
2019-04-22T03:42:51.974Z,99.90
2019-04-22T03:52:50.174Z,99.90
2019-04-22T04:05:37.668Z,99.90
2019-04-22T04:08:11.289Z,99.90
2019-04-22T04:13:33.202Z,99.90
2019-04-22T04:15:29.985Z,99.90
2019-04-22T04:18:03.353Z,99.90
2019-04-22T04:20:45.323Z,99.90
2019-04-22T04:23:24.321Z,99.90
2019-04-22T04:30:48.728Z,99.90
2019-04-22T04:33:23.307Z,99.90
2019-04-22T04:38:33.997Z,99.90
2019-04-22T04:40:57.994Z,99.90
2019-04-22T04:43:40.588Z,99.90
2019-04-22T04:46:07.277Z,99.90
2019-04-22T04:48:42.364Z,99.90
2019-04-22T04:53:33.277Z,99.90
2019-04-22T04:56:11.950Z,99.90
2019-04-22T05:01:23.203Z,99.90
2019-04-22T05:03:57.858Z,99.90
2019-04-22T05:06:24.219Z,99.90
2019-04-22T05:11:33.208Z,99.90
2019-04-22T05:16:40.550Z,99.90
2019-04-22T05:19:05.666Z,99.90
2019-04-22T05:21:26.560Z,99.90
2019-04-22T05:24:02.475Z,99.90
2019-04-22T05:26:34.217Z,99.90
2019-04-22T05:29:06.659Z,99.90
2019-04-22T05:31:38.660Z,99.90
2019-04-22T05:34:08.507Z,99.90
2019-04-22T05:36:40.286Z,99.90
2019-04-22T05:39:11.219Z,99.90
2019-04-22T05:41:42.389Z,99.90
2019-04-22T05:44:15.828Z,99.90
2019-04-22T05:46:47.507Z,99.90
2019-04-22T05:49:18.186Z,99.90
2019-04-22T05:51:48.238Z,99.90
2019-04-22T05:54:21.884Z,99.90
2019-04-22T05:56:53.368Z,99.90
2019-04-22T05:59:32.618Z,99.90
2019-04-22T06:04:29.620Z,99.90
2019-04-22T06:07:02.078Z,99.90
2019-04-22T06:09:33.911Z,99.90
2019-04-22T06:12:10.209Z,99.90
2019-04-22T06:14:41.902Z,99.90
2019-04-22T06:17:18.236Z,99.90
2019-04-22T06:19:52.857Z,99.90
2019-04-22T06:22:31.943Z,99.90
2019-04-22T06:24:59.295Z,99.90
2019-04-22T06:27:28.797Z,99.90
2019-04-22T06:29:55.422Z,99.90
2019-04-22T06:35:11.296Z,99.90
2019-04-22T06:37:45.400Z,99.90
2019-04-22T06:40:15.935Z,99.90
2019-04-22T06:42:42.744Z,99.90
2019-04-22T06:45:21.904Z,99.70
2019-04-22T06:48:01.843Z,99.70
2019-04-22T06:50:28.414Z,99.10
2019-04-22T06:52:52.288Z,98.00
2019-04-22T06:55:21.943Z,98.20
2019-04-22T06:57:51.109Z,98.30
2019-04-22T07:00:42.776Z,98.00
2019-04-22T07:03:24.114Z,97.30
2019-04-22T07:05:32.803Z,97.80
2019-04-22T07:08:27.525Z,97.90
2019-04-22T07:13:11.254Z,97.70
2019-04-22T07:18:18.079Z,97.50
2019-04-22T07:23:24.791Z,96.60
2019-04-22T07:25:50.231Z,95.50
2019-04-22T07:28:20.117Z,95.80
2019-04-22T07:31:00.350Z,96.40
2019-04-22T07:33:34.249Z,96.20
2019-04-22T07:36:23.434Z,96.80
2019-04-22T07:40:59.432Z,96.30
2019-04-22T07:43:53.082Z,96.70
2019-04-22T07:46:10.977Z,95.60
2019-04-22T07:48:45.195Z,94.90
2019-04-22T07:51:27.083Z,95.20
2019-04-22T07:53:40.089Z,94.70
2019-04-22T07:56:18.752Z,95.00
2019-04-22T07:58:48.972Z,94.50
2019-04-22T08:01:20.378Z,95.20
2019-04-22T08:04:17.734Z,95.00
2019-04-22T08:09:00.265Z,95.00
2019-04-22T08:13:58.737Z,94.50
2019-04-22T08:16:38.598Z,95.50
2019-04-22T08:19:16.987Z,95.20
2019-04-22T08:21:48.183Z,94.80
2019-04-22T08:24:18.424Z,94.10
2019-04-22T08:29:52.307Z,93.10
2019-04-22T08:32:22.387Z,94.40
2019-04-22T08:34:51.114Z,94.50
2019-04-22T08:40:00.333Z,95.60
2019-04-22T08:43:36.405Z,95.80
2019-04-22T08:45:09.507Z,95.70
2019-04-22T08:47:39.131Z,95.20
2019-04-22T08:50:07.729Z,95.70
2019-04-22T08:52:54.867Z,93.80
2019-04-22T09:00:43.610Z,93.50
2019-04-22T09:03:17.360Z,93.20
2019-04-22T09:06:00.809Z,92.70
2019-04-22T09:08:24.352Z,93.30
2019-04-22T09:10:58.424Z,93.50
2019-04-22T09:13:30.038Z,92.60
2019-04-22T09:15:56.758Z,92.50
2019-04-22T09:18:28.792Z,92.60
2019-04-22T09:21:07.317Z,92.60
2019-04-22T09:23:37.229Z,92.60
2019-04-22T09:26:10.707Z,92.50
2019-04-22T09:28:52.370Z,91.70
2019-04-22T09:32:00.250Z,91.10
2019-04-22T09:34:35.426Z,90.10
2019-04-22T09:37:47.365Z,90.60
2019-04-22T09:40:15.283Z,90.00
2019-04-22T09:45:48.586Z,91.50
2019-04-22T09:48:23.773Z,91.40
2019-04-22T09:50:52.484Z,91.60
2019-04-22T09:53:29.719Z,90.50
2019-04-22T09:55:57.170Z,91.20
2019-04-22T09:59:03.239Z,90.90
2019-04-22T10:02:10.275Z,91.00
2019-04-22T10:04:25.337Z,91.00
2019-04-22T10:06:41.818Z,91.20
2019-04-22T10:09:47.337Z,91.10
2019-04-22T10:11:50.599Z,90.70
2019-04-22T10:14:39.689Z,91.50
2019-04-22T10:17:06.605Z,90.60
2019-04-22T10:19:53.754Z,91.00
2019-04-22T10:22:36.653Z,91.00
2019-04-22T10:25:17.053Z,91.20
2019-04-22T10:31:26.199Z,91.90
2019-04-22T10:34:02.664Z,91.80
2019-04-22T10:36:50.465Z,92.00
2019-04-22T10:39:46.083Z,92.00
2019-04-22T10:42:25.232Z,90.50
2019-04-22T10:44:55.737Z,91.10
2019-04-22T10:47:27.987Z,90.40
2019-04-22T10:50:22.683Z,90.40
2019-04-22T10:53:03.545Z,90.80
2019-04-22T10:55:45.206Z,91.10
2019-04-22T10:58:16.993Z,90.20
2019-04-22T11:00:56.139Z,90.30
2019-04-22T11:03:28.282Z,90.10
2019-04-22T11:06:19.179Z,89.70
2019-04-22T11:09:47.705Z,90.70
2019-04-22T11:12:19.235Z,88.70
2019-04-22T11:14:49.747Z,87.20
2019-04-22T11:17:23.999Z,87.20
2019-04-22T11:19:59.673Z,85.80
2019-04-22T11:22:40.693Z,88.30
2019-04-22T11:25:48.009Z,86.10
2019-04-22T11:28:31.701Z,87.10
2019-04-22T11:31:06.097Z,85.80
2019-04-22T11:34:39.745Z,85.60
2019-04-22T11:37:12.340Z,87.00
2019-04-22T11:39:44.963Z,85.80
2019-04-22T11:42:16.435Z,87.90
2019-04-22T11:45:15.285Z,87.00
2019-04-22T11:48:06.347Z,85.80
2019-04-22T11:50:42.121Z,85.60
2019-04-22T11:53:31.311Z,86.70
2019-04-22T11:56:06.746Z,86.10
2019-04-22T11:58:38.932Z,85.30
2019-04-22T12:01:12.846Z,87.40
2019-04-22T12:03:44.222Z,85.60
2019-04-22T12:06:15.819Z,86.00
2019-04-22T12:08:50.273Z,86.00
2019-04-22T12:11:20.946Z,83.20
2019-04-22T12:13:53.810Z,81.60
2019-04-22T12:16:25.718Z,80.40
2019-04-22T12:18:58.498Z,81.90
2019-04-22T12:21:29.009Z,80.60
2019-04-22T12:24:01.018Z,82.10
2019-04-22T12:27:08.409Z,82.60
2019-04-22T12:29:43.024Z,84.80
2019-04-22T12:32:48.496Z,85.10
2019-04-22T12:35:19.924Z,83.90
2019-04-22T12:38:01.473Z,84.00
2019-04-22T12:41:08.092Z,86.30
2019-04-22T12:43:41.093Z,86.70
2019-04-22T12:46:16.500Z,85.30
2019-04-22T12:53:06.835Z,85.90
2019-04-22T12:58:43.446Z,82.10
2019-04-22T13:04:32.218Z,79.10
2019-04-22T13:06:59.963Z,80.50
2019-04-22T13:09:33.531Z,80.40
2019-04-22T13:15:31.066Z,81.10
2019-04-22T13:18:31.901Z,83.30
2019-04-22T13:21:02.595Z,79.20
2019-04-22T13:23:37.327Z,80.20
2019-04-22T13:26:10.665Z,78.80
2019-04-22T13:28:59.026Z,78.90
2019-04-22T13:31:48.765Z,81.00
2019-04-22T13:34:45.836Z,80.70
2019-04-22T13:40:15.235Z,80.70
2019-04-22T13:42:49.181Z,77.20
2019-04-22T13:45:27.686Z,78.10
2019-04-22T13:48:16.765Z,78.60
2019-04-22T13:51:03.774Z,81.70
2019-04-22T13:55:56.036Z,79.70
2019-04-22T13:58:48.515Z,79.10
2019-04-22T14:01:36.689Z,75.10
2019-04-22T14:04:28.581Z,77.20
2019-04-22T14:07:00.766Z,76.20
2019-04-22T14:09:33.801Z,75.30
2019-04-22T14:12:07.616Z,74.50
2019-04-22T14:14:39.255Z,72.90
2019-04-22T14:17:11.350Z,73.70
2019-04-22T14:19:42.387Z,76.30
2019-04-22T14:22:13.784Z,77.10
2019-04-22T14:24:48.867Z,76.40
2019-04-22T14:27:37.278Z,74.70
2019-04-22T14:29:55.665Z,74.80
2019-04-22T14:32:29.319Z,71.40
2019-04-22T14:34:58.598Z,71.20
2019-04-22T14:37:34.199Z,71.40
2019-04-22T14:40:08.825Z,72.30
2019-04-22T14:42:58.919Z,73.00
2019-04-22T14:45:52.199Z,72.60
2019-04-22T14:48:12.457Z,74.40
2019-04-22T14:50:42.308Z,74.50
2019-04-22T14:53:14.453Z,74.00
2019-04-22T14:55:30.675Z,74.40
2019-04-22T14:57:59.245Z,74.70
2019-04-22T15:00:29.634Z,73.90
2019-04-22T15:03:01.359Z,75.30
2019-04-22T15:05:34.384Z,72.20
2019-04-22T15:08:07.140Z,74.00
2019-04-22T15:10:39.847Z,72.70
2019-04-22T15:13:11.651Z,72.90
2019-04-22T15:15:57.488Z,72.30
2019-04-22T15:18:42.126Z,72.20
2019-04-22T15:21:16.477Z,71.80
2019-04-22T15:23:46.976Z,70.40
2019-04-22T15:26:26.455Z,72.00
2019-04-22T15:28:57.718Z,68.70
2019-04-22T15:31:29.258Z,67.70
2019-04-22T15:34:00.574Z,68.70
2019-04-22T15:36:32.414Z,65.90
2019-04-22T15:39:07.261Z,66.50
2019-04-22T15:41:39.029Z,65.10
2019-04-22T15:44:10.123Z,65.70
2019-04-22T15:46:42.634Z,66.30
2019-04-22T15:49:13.817Z,64.60
2019-04-22T15:51:46.847Z,63.70
2019-04-22T15:54:17.427Z,64.50
2019-04-22T15:56:48.964Z,63.50
2019-04-22T15:59:38.957Z,64.50
2019-04-22T16:01:58.191Z,64.00
2019-04-22T16:04:26.468Z,63.90
2019-04-22T16:06:59.062Z,61.90
2019-04-22T16:09:36.753Z,62.80
2019-04-22T16:12:18.614Z,63.50
2019-04-22T16:14:43.482Z,61.60
2019-04-22T16:17:12.654Z,65.30
2019-04-22T16:19:43.355Z,68.20
2019-04-22T16:22:21.765Z,67.80
2019-04-22T16:25:11.158Z,66.00
2019-04-22T16:27:45.838Z,65.00
2019-04-22T16:30:17.244Z,64.70
2019-04-22T16:33:01.273Z,65.10
2019-04-22T16:35:33.110Z,67.50
2019-04-22T16:38:04.411Z,69.90
2019-04-22T16:40:36.662Z,69.90
2019-04-22T16:43:11.959Z,68.10
2019-04-22T16:45:43.601Z,66.40
2019-04-22T16:48:17.862Z,66.70
2019-04-22T16:50:52.202Z,67.30
2019-04-22T16:53:23.088Z,68.70
2019-04-22T16:55:54.882Z,69.50
2019-04-22T16:58:26.089Z,71.70
2019-04-22T17:00:56.553Z,72.20
2019-04-22T17:03:36.434Z,72.30
2019-04-22T17:06:11.797Z,73.30
2019-04-22T17:08:42.601Z,73.10
2019-04-22T17:11:13.659Z,74.90
2019-04-22T17:13:46.160Z,75.50
2019-04-22T17:16:18.070Z,76.50
2019-04-22T17:18:50.075Z,77.00
2019-04-22T17:21:23.647Z,78.30
2019-04-22T17:23:55.837Z,78.10
2019-04-22T17:26:28.537Z,78.20
2019-04-22T17:29:02.508Z,79.10
2019-04-22T17:31:31.072Z,79.80
2019-04-22T17:34:02.562Z,79.60
2019-04-22T17:36:34.111Z,80.30
2019-04-22T17:39:22.782Z,80.30
2019-04-22T17:42:03.507Z,81.20
2019-04-22T17:44:37.699Z,82.00
2019-04-22T17:47:22.003Z,82.20
2019-04-22T17:50:00.385Z,82.80
2019-04-22T17:52:39.532Z,83.50
2019-04-22T17:55:05.065Z,83.10
2019-04-22T17:57:35.683Z,83.50
2019-04-22T18:00:11.395Z,84.20
2019-04-22T18:02:39.689Z,85.00
2019-04-22T18:05:03.528Z,85.50
2019-04-22T18:07:57.948Z,86.10
2019-04-22T18:13:08.832Z,87.00
2019-04-22T18:15:27.342Z,87.60
2019-04-22T18:18:06.503Z,88.00
2019-04-22T18:20:29.370Z,88.40
2019-04-22T18:22:58.050Z,88.80
2019-04-22T18:25:36.321Z,89.20
2019-04-22T18:28:17.308Z,89.40
2019-04-22T18:30:40.740Z,89.60
2019-04-22T18:33:28.669Z,89.70
2019-04-22T18:36:02.204Z,90.00
2019-04-22T18:38:46.619Z,90.00
2019-04-22T18:41:04.789Z,90.10
2019-04-22T18:43:51.738Z,90.30
2019-04-22T18:46:21.294Z,90.40
2019-04-22T18:48:55.924Z,90.50
2019-04-22T18:51:40.921Z,90.50
2019-04-22T18:54:28.851Z,91.80
2019-04-22T18:56:58.420Z,92.30
2019-04-22T18:59:17.452Z,92.40
2019-04-22T19:01:42.232Z,92.20
2019-04-22T19:04:19.405Z,92.00
2019-04-22T19:07:11.073Z,92.30
2019-04-22T19:09:51.647Z,92.60
2019-04-22T19:12:24.156Z,93.20
2019-04-22T19:14:52.980Z,92.60
2019-04-22T19:17:35.508Z,92.70
2019-04-22T19:19:56.042Z,92.90
2019-04-22T19:22:27.676Z,93.10
2019-04-22T19:24:54.760Z,93.50
2019-04-22T19:27:26.800Z,93.80
2019-04-22T19:30:06.527Z,95.10
2019-04-22T19:32:31.039Z,95.10
2019-04-22T19:35:03.563Z,94.40
2019-04-22T19:37:32.623Z,94.50
2019-04-22T19:40:30.591Z,94.60
2019-04-22T19:42:53.560Z,94.90
2019-04-22T19:45:10.679Z,95.00
2019-04-22T19:47:53.558Z,95.30
2019-04-22T19:50:24.470Z,95.50
2019-04-22T19:52:50.294Z,96.10
2019-04-22T19:55:23.621Z,96.40
2019-04-22T19:57:54.777Z,96.70
2019-04-22T20:00:42.005Z,96.70
2019-04-22T20:03:42.779Z,96.80
2019-04-22T20:06:31.968Z,97.10
2019-04-22T20:08:59.690Z,97.20
2019-04-22T20:11:34.164Z,97.30
2019-04-22T20:14:12.671Z,97.50
2019-04-22T20:16:43.853Z,97.60
2019-04-22T20:19:19.299Z,97.90
2019-04-22T20:21:49.416Z,98.10
2019-04-22T20:24:06.729Z,98.20
2019-04-22T20:26:59.486Z,98.20
2019-04-22T20:29:35.102Z,98.30
2019-04-22T20:32:05.968Z,98.20
2019-04-22T20:34:37.965Z,98.30
2019-04-22T20:39:44.375Z,98.40
2019-04-22T20:42:31.111Z,98.50
2019-04-22T20:45:04.010Z,98.60
2019-04-22T20:47:16.578Z,98.60
2019-04-22T20:49:55.427Z,98.80
2019-04-22T20:54:58.907Z,99.00
2019-04-22T20:57:34.937Z,99.00
2019-04-22T21:00:06.176Z,99.50
2019-04-22T21:02:32.734Z,99.40
2019-04-22T21:05:18.072Z,99.50
2019-04-22T21:07:59.502Z,99.70
2019-04-22T21:10:28.288Z,99.70
2019-04-22T21:13:00.257Z,99.80
2019-04-22T21:15:43.853Z,99.90
2019-04-22T21:18:09.676Z,99.90
2019-04-22T21:20:49.560Z,99.90
2019-04-22T21:23:15.371Z,99.90
2019-04-22T21:25:36.787Z,99.90
2019-04-22T21:28:21.579Z,99.90
2019-04-22T21:30:53.962Z,99.90
2019-04-22T21:33:18.613Z,99.90
2019-04-22T21:38:32.634Z,99.90
2019-04-22T21:40:59.859Z,99.90
2019-04-22T21:43:38.608Z,99.90
2019-04-22T21:46:08.955Z,99.90
2019-04-22T21:48:44.370Z,99.90
2019-04-22T21:51:19.174Z,99.90
2019-04-22T21:53:52.192Z,99.90
2019-04-22T21:56:40.532Z,99.90
2019-04-22T21:59:01.618Z,99.90
2019-04-22T22:01:51.141Z,99.90
2019-04-22T22:04:11.584Z,99.90
2019-04-22T22:06:37.309Z,99.90
2019-04-22T22:09:16.782Z,99.90
2019-04-22T22:11:49.487Z,99.90
2019-04-22T22:14:16.980Z,99.90
2019-04-22T22:16:44.555Z,99.90
2019-04-22T22:19:22.466Z,99.90
2019-04-22T22:22:13.363Z,99.90
2019-04-22T22:24:36.978Z,99.90
2019-04-22T22:27:01.424Z,99.90
2019-04-22T22:29:46.944Z,99.90
2019-04-22T22:32:09.342Z,99.90
2019-04-22T22:34:36.219Z,99.90
2019-04-22T22:37:03.239Z,99.90
2019-04-22T22:39:35.386Z,99.90
2019-04-22T22:41:52.037Z,99.90
2019-04-22T22:44:30.358Z,99.90
2019-04-22T22:47:13.080Z,99.90
2019-04-22T22:49:50.180Z,99.90
2019-04-22T22:54:54.104Z,99.90
2019-04-22T22:57:28.931Z,99.90
2019-04-22T22:59:55.735Z,99.90
2019-04-22T23:02:28.795Z,99.90
2019-04-22T23:05:05.883Z,99.90
2019-04-22T23:07:37.145Z,99.90
2019-04-22T23:10:07.929Z,99.90
2019-04-22T23:12:55.598Z,99.90
2019-04-22T23:15:10.671Z,99.90
2019-04-22T23:17:26.053Z,99.90
2019-04-22T23:19:57.732Z,99.90
2019-04-22T23:22:39.612Z,99.90
2019-04-22T23:25:24.798Z,99.90
2019-04-22T23:27:52.547Z,99.90
2019-04-22T23:30:35.909Z,99.90
2019-04-22T23:33:18.386Z,99.90
2019-04-22T23:36:00.303Z,99.90
2019-04-22T23:38:41.342Z,99.90
2019-04-22T23:41:42.409Z,99.90
2019-04-22T23:44:10.094Z,99.90
2019-04-22T23:46:37.999Z,99.90
2019-04-22T23:49:08.038Z,99.90
2019-04-22T23:51:58.099Z,99.90
2019-04-22T23:54:24.260Z,99.90
2019-04-22T23:56:48.002Z,99.90
2019-04-22T23:59:38.163Z,99.90
